createdAt,value
2022-09-22T00:00:59.118Z,7.78
2022-09-22T00:03:22.758Z,10.13
2022-09-22T00:05:46.263Z,8.50
2022-09-22T00:08:09.870Z,9.27
2022-09-22T00:10:33.389Z,7.78
2022-09-22T00:12:57.031Z,10.85
2022-09-22T00:15:20.651Z,10.70
2022-09-22T00:17:45.980Z,11.40
2022-09-22T00:20:13.924Z,8.38
2022-09-22T00:22:37.498Z,8.95
2022-09-22T00:25:01.306Z,13.48
2022-09-22T00:27:25.632Z,6.53
2022-09-22T00:29:50.515Z,7.47
2022-09-22T00:32:14.546Z,8.88
2022-09-22T00:34:39.430Z,8.02
2022-09-22T00:37:02.973Z,8.73
2022-09-22T00:39:27.602Z,8.45
2022-09-22T00:41:53.837Z,9.30
2022-09-22T00:44:38.491Z,8.55
2022-09-22T00:47:23.611Z,6.43
2022-09-22T00:49:54.229Z,6.65
2022-09-22T00:52:23.346Z,6.88
2022-09-22T00:54:47.203Z,8.30
2022-09-22T00:57:16.008Z,9.68
2022-09-22T00:59:40.234Z,10.80
2022-09-22T01:02:03.888Z,8.05
2022-09-22T01:04:28.142Z,9.98
2022-09-22T01:06:54.559Z,10.23
2022-09-22T01:09:18.908Z,11.40
2022-09-22T01:11:44.648Z,9.27
2022-09-22T01:14:18.110Z,9.80
2022-09-22T01:16:51.687Z,7.38
2022-09-22T01:19:52.855Z,10.60
2022-09-22T01:22:40.433Z,9.30
2022-09-22T01:25:29.605Z,7.43
2022-09-22T01:28:24.526Z,7.88
2022-09-22T01:30:53.463Z,6.80
2022-09-22T01:33:32.127Z,11.40
2022-09-22T01:36:22.787Z,7.45
2022-09-22T01:38:57.623Z,7.13
2022-09-22T01:41:40.062Z,9.18
2022-09-22T01:44:07.549Z,8.03
2022-09-22T01:46:37.912Z,12.57
2022-09-22T01:49:08.650Z,8.38
2022-09-22T01:51:36.321Z,7.00
2022-09-22T01:54:05.964Z,8.65
2022-09-22T01:56:32.615Z,8.57
2022-09-22T01:59:01.287Z,7.07
2022-09-22T02:01:29.845Z,9.00
2022-09-22T02:04:01.377Z,10.10
2022-09-22T02:06:29.641Z,7.32
2022-09-22T02:08:57.867Z,8.35
2022-09-22T02:11:22.931Z,7.97
2022-09-22T02:13:47.803Z,8.27
2022-09-22T02:16:12.753Z,9.10
2022-09-22T02:18:45.037Z,9.50
2022-09-22T02:21:10.758Z,7.57
2022-09-22T02:23:35.367Z,9.37
2022-09-22T02:25:59.699Z,7.03
2022-09-22T02:28:25.276Z,6.78
2022-09-22T02:31:17.633Z,9.13
2022-09-22T02:33:40.466Z,9.07
2022-09-22T02:36:18.918Z,7.10
2022-09-22T02:38:51.462Z,7.80
2022-09-22T02:41:25.271Z,12.37
2022-09-22T02:43:55.142Z,8.80
2022-09-22T02:46:26.632Z,6.47
2022-09-22T02:48:54.322Z,6.57
2022-09-22T02:51:20.172Z,9.40
2022-09-22T02:53:43.755Z,8.47
2022-09-22T02:56:07.678Z,7.43
2022-09-22T02:58:31.237Z,7.50
2022-09-22T03:00:54.763Z,9.27
2022-09-22T03:03:18.318Z,5.97
2022-09-22T03:05:42.118Z,7.33
2022-09-22T03:08:07.921Z,7.20
2022-09-22T03:10:31.529Z,5.57
2022-09-22T03:13:15.631Z,5.70
2022-09-22T03:15:38.757Z,5.07
2022-09-22T03:18:02.365Z,8.67
2022-09-22T03:20:25.948Z,5.30
2022-09-22T03:22:49.635Z,6.77
2022-09-22T03:25:14.666Z,6.47
2022-09-22T03:27:38.395Z,7.10
2022-09-22T03:30:04.079Z,7.53
2022-09-22T03:32:27.730Z,6.40
2022-09-22T03:34:51.610Z,6.43
2022-09-22T03:37:15.194Z,5.80
2022-09-22T03:39:38.836Z,6.93
2022-09-22T03:42:03.767Z,7.47
2022-09-22T03:44:27.686Z,5.87
2022-09-22T03:46:51.214Z,7.13
2022-09-22T03:49:14.887Z,6.53
2022-09-22T03:51:38.696Z,5.13
2022-09-22T03:54:02.495Z,6.03
2022-09-22T03:56:26.023Z,5.15
2022-09-22T03:58:51.065Z,7.77
2022-09-22T04:01:14.693Z,10.60
2022-09-22T04:03:38.895Z,10.17
2022-09-22T04:06:02.862Z,9.13
2022-09-22T04:08:26.469Z,4.53
2022-09-22T04:10:50.251Z,5.90
2022-09-22T04:13:14.599Z,6.53
2022-09-22T04:15:39.546Z,8.40
2022-09-22T04:18:03.090Z,7.43
2022-09-22T04:20:27.627Z,6.40
2022-09-22T04:22:51.198Z,6.43
2022-09-22T04:25:14.703Z,7.80
2022-09-22T04:27:38.314Z,9.27
2022-09-22T04:30:01.949Z,4.47
2022-09-22T04:32:26.935Z,6.10
2022-09-22T04:34:51.115Z,7.90
2022-09-22T04:37:14.762Z,6.37
2022-09-22T04:39:38.606Z,6.53
2022-09-22T04:42:02.170Z,10.60
2022-09-22T04:44:25.755Z,6.27
2022-09-22T04:46:50.290Z,6.03
2022-09-22T04:49:15.626Z,6.30
2022-09-22T04:51:39.263Z,7.17
2022-09-22T04:54:02.984Z,8.37
2022-09-22T04:56:26.603Z,7.93
2022-09-22T04:58:50.125Z,8.40
2022-09-22T05:01:13.789Z,8.83
2022-09-22T05:03:39.099Z,6.83
2022-09-22T05:06:04.085Z,8.23
2022-09-22T05:08:27.593Z,7.37
2022-09-22T05:10:51.268Z,6.70
2022-09-22T05:13:15.482Z,7.17
2022-09-22T05:15:39.067Z,7.00
2022-09-22T05:18:02.642Z,12.60
2022-09-22T05:20:26.243Z,4.80
2022-09-22T05:22:51.281Z,5.87
2022-09-22T05:25:17.645Z,9.80
2022-09-22T05:27:45.687Z,6.97
2022-09-22T05:30:10.729Z,10.97
2022-09-22T05:32:34.250Z,13.07
2022-09-22T05:34:58.022Z,12.83
2022-09-22T05:37:21.555Z,12.43
2022-09-22T05:39:46.496Z,7.43
2022-09-22T05:42:11.157Z,9.93
2022-09-22T05:44:34.850Z,7.10
2022-09-22T05:46:59.014Z,7.93
2022-09-22T05:49:22.570Z,8.33
2022-09-22T05:51:46.739Z,7.00
2022-09-22T05:54:11.040Z,9.60
2022-09-22T05:56:35.939Z,10.80
2022-09-22T05:58:59.682Z,8.00
2022-09-22T06:01:23.253Z,4.75
2022-09-22T06:03:46.874Z,6.83
2022-09-22T06:06:10.369Z,5.97
2022-09-22T06:08:33.961Z,7.37
2022-09-22T06:10:57.492Z,9.83
2022-09-22T06:13:22.470Z,7.68
2022-09-22T06:15:48.714Z,9.60
2022-09-22T06:18:15.264Z,9.60
2022-09-22T06:20:39.222Z,7.15
2022-09-22T06:23:02.934Z,10.23
2022-09-22T06:25:28.138Z,9.52
2022-09-22T06:28:01.961Z,9.73
2022-09-22T06:30:26.988Z,8.77
2022-09-22T06:32:55.599Z,7.75
2022-09-22T06:35:19.281Z,8.35
2022-09-22T06:37:43.025Z,7.93
2022-09-22T06:40:11.885Z,10.20
2022-09-22T06:42:37.747Z,9.30
2022-09-22T06:45:02.362Z,6.22
2022-09-22T06:47:27.893Z,6.60
2022-09-22T06:49:51.496Z,6.47
2022-09-22T06:52:15.211Z,7.78
2022-09-22T06:54:39.909Z,7.35
2022-09-22T06:57:03.907Z,6.00
2022-09-22T06:59:27.630Z,5.45
2022-09-22T07:01:51.301Z,6.32
2022-09-22T07:04:16.817Z,4.57
2022-09-22T07:06:41.184Z,4.30
2022-09-22T07:09:06.150Z,3.42
2022-09-22T07:11:30.308Z,3.20
2022-09-22T07:13:55.490Z,4.32
2022-09-22T07:16:21.160Z,3.63
2022-09-22T07:18:47.350Z,4.82
2022-09-22T07:21:15.668Z,4.53
2022-09-22T07:23:40.884Z,4.25
2022-09-22T07:26:05.851Z,4.10
2022-09-22T07:28:29.559Z,3.35
2022-09-22T07:30:53.087Z,3.42
2022-09-22T07:33:17.558Z,4.32
2022-09-22T07:35:41.195Z,4.30
2022-09-22T07:38:06.137Z,3.80
2022-09-22T07:40:29.715Z,8.15
2022-09-22T07:42:53.373Z,4.32
2022-09-22T07:45:17.123Z,4.00
2022-09-22T07:47:57.828Z,4.97
2022-09-22T07:50:21.403Z,4.93
2022-09-22T07:52:51.869Z,6.32
2022-09-22T07:55:17.060Z,6.95
2022-09-22T07:57:40.543Z,5.13
2022-09-22T08:00:04.596Z,4.18
2022-09-22T08:02:35.488Z,4.28
2022-09-22T08:05:04.161Z,4.00
2022-09-22T08:07:30.023Z,3.75
2022-09-22T08:09:53.692Z,5.40
2022-09-22T08:12:18.677Z,6.50
2022-09-22T08:14:42.588Z,5.10
2022-09-22T08:17:07.563Z,5.85
2022-09-22T08:19:33.903Z,4.40
2022-09-22T08:21:57.759Z,4.13
2022-09-22T08:24:22.901Z,4.00
2022-09-22T08:26:48.388Z,3.45
2022-09-22T08:29:13.579Z,3.47
2022-09-22T08:31:41.252Z,4.47
2022-09-22T08:34:06.218Z,3.95
2022-09-22T08:36:29.991Z,4.13
2022-09-22T08:38:53.817Z,6.00
2022-09-22T08:41:27.660Z,5.47
2022-09-22T08:43:55.602Z,4.82
2022-09-22T08:46:20.656Z,4.45
2022-09-22T08:49:05.552Z,3.08
2022-09-22T08:51:55.548Z,4.45
2022-09-22T08:54:19.483Z,4.50
2022-09-22T08:56:48.226Z,4.00
2022-09-22T08:59:20.166Z,4.80
2022-09-22T09:02:29.364Z,5.60
2022-09-22T09:05:48.912Z,4.53
2022-09-22T09:08:30.969Z,2.70
2022-09-22T09:10:57.065Z,2.35
2022-09-22T09:13:38.438Z,2.47
2022-09-22T09:16:25.956Z,3.78
2022-09-22T09:18:57.720Z,2.30
2022-09-22T09:21:22.809Z,2.88
2022-09-22T09:26:36.320Z,1.55
2022-09-22T09:29:04.019Z,2.13
2022-09-22T09:31:37.434Z,1.80
2022-09-22T09:34:06.266Z,1.40
2022-09-22T09:36:34.028Z,2.53
2022-09-22T09:39:00.220Z,1.05
2022-09-22T09:41:28.214Z,1.10
2022-09-22T09:43:54.423Z,2.03
2022-09-22T09:46:33.079Z,1.60
2022-09-22T09:49:14.445Z,4.35
2022-09-22T09:51:40.934Z,2.25
2022-09-22T09:54:06.428Z,2.35
2022-09-22T09:56:31.994Z,2.80
2022-09-22T09:59:18.143Z,3.20
2022-09-22T10:01:44.217Z,1.35
2022-09-22T10:04:17.735Z,1.77
2022-09-22T10:06:41.565Z,2.00
2022-09-22T10:09:06.280Z,0.77
2022-09-22T10:11:32.474Z,1.38
2022-09-22T10:13:58.541Z,1.00
2022-09-22T10:16:24.352Z,1.05
2022-09-22T10:18:49.110Z,3.58
2022-09-22T10:21:18.354Z,0.85
2022-09-22T10:23:43.270Z,1.52
2022-09-22T10:26:20.867Z,1.20
2022-09-22T10:28:44.671Z,1.15
2022-09-22T10:31:09.903Z,0.82
2022-09-22T10:33:34.967Z,0.50
2022-09-22T10:36:11.025Z,0.47
2022-09-22T10:38:40.980Z,1.33
2022-09-22T10:41:08.960Z,1.10
2022-09-22T10:43:45.734Z,1.17
2022-09-22T10:46:32.559Z,2.03
2022-09-22T10:49:00.676Z,0.95
2022-09-22T10:51:38.107Z,0.65
2022-09-22T10:54:26.339Z,1.27
2022-09-22T10:56:54.621Z,1.50
2022-09-22T10:59:49.586Z,1.02
2022-09-22T11:02:45.378Z,2.67
2022-09-22T11:05:44.079Z,0.60
2022-09-22T11:08:30.254Z,1.15
2022-09-22T11:11:23.055Z,1.80
2022-09-22T11:14:06.444Z,0.52
2022-09-22T11:17:05.101Z,1.27
2022-09-22T11:20:01.813Z,1.08
2022-09-22T11:22:48.786Z,2.30
2022-09-22T11:25:30.014Z,4.65
2022-09-22T11:28:09.200Z,12.05
2022-09-22T11:30:36.465Z,3.38
2022-09-22T11:33:43.712Z,1.13
2022-09-22T11:36:22.454Z,1.25
2022-09-22T11:39:07.176Z,0.93
2022-09-22T11:41:39.264Z,0.30
2022-09-22T11:44:34.386Z,1.05
2022-09-22T11:47:31.360Z,0.57
2022-09-22T11:50:46.915Z,6.15
2022-09-22T11:53:35.036Z,3.53
2022-09-22T11:56:21.587Z,0.90
2022-09-22T11:58:47.475Z,0.40
2022-09-22T12:01:16.541Z,0.70
2022-09-22T12:03:47.629Z,1.67
2022-09-22T12:06:16.527Z,2.60
2022-09-22T12:08:49.396Z,0.85
2022-09-22T12:11:16.767Z,1.15
2022-09-22T12:13:47.250Z,1.13
2022-09-22T12:16:20.285Z,1.55
2022-09-22T12:18:51.243Z,1.75
2022-09-22T12:21:32.989Z,2.60
2022-09-22T12:23:57.211Z,0.60
2022-09-22T12:26:29.673Z,0.95
2022-09-22T12:28:53.426Z,0.80
2022-09-22T12:31:21.136Z,1.25
2022-09-22T12:33:51.529Z,0.60
2022-09-22T12:36:17.169Z,0.50
2022-09-22T12:38:41.114Z,0.50
2022-09-22T12:41:05.234Z,0.75
2022-09-22T12:43:29.922Z,0.60
2022-09-22T12:45:55.173Z,1.27
2022-09-22T12:48:25.039Z,2.38
2022-09-22T12:50:48.677Z,0.75
2022-09-22T12:53:26.033Z,3.72
2022-09-22T12:55:50.162Z,0.40
2022-09-22T12:58:43.608Z,0.63
2022-09-22T13:01:35.604Z,0.50
2022-09-22T13:04:18.974Z,1.30
2022-09-22T13:06:56.311Z,0.80
2022-09-22T13:09:25.516Z,0.43
2022-09-22T13:12:28.166Z,2.67
2022-09-22T13:15:21.230Z,2.42
2022-09-22T13:17:47.784Z,3.33
2022-09-22T13:20:23.334Z,3.13
2022-09-22T13:22:47.207Z,4.65
2022-09-22T13:25:28.606Z,0.70
2022-09-22T13:28:13.249Z,5.35
2022-09-22T13:30:37.676Z,2.00
2022-09-22T13:33:01.358Z,1.42
2022-09-22T13:35:31.957Z,1.90
2022-09-22T13:37:57.955Z,1.83
2022-09-22T13:40:22.262Z,1.00
2022-09-22T13:42:46.696Z,2.95
2022-09-22T13:45:19.117Z,1.23
2022-09-22T13:47:44.926Z,1.08
2022-09-22T13:50:15.160Z,1.38
2022-09-22T13:52:42.315Z,1.55
2022-09-22T13:55:11.341Z,1.10
2022-09-22T13:57:38.495Z,1.48
2022-09-22T14:00:03.888Z,0.85
2022-09-22T14:02:32.435Z,0.75
2022-09-22T14:04:59.066Z,0.93
2022-09-22T14:07:24.923Z,0.50
2022-09-22T14:09:51.235Z,2.88
2022-09-22T14:12:15.582Z,2.30
2022-09-22T14:14:40.374Z,1.10
2022-09-22T14:17:07.030Z,0.80
2022-09-22T14:19:35.762Z,1.13
2022-09-22T14:22:01.535Z,1.35
2022-09-22T14:24:25.506Z,0.85
2022-09-22T14:26:52.718Z,0.43
2022-09-22T14:29:21.320Z,1.27
2022-09-22T14:31:48.321Z,1.20
2022-09-22T14:34:18.167Z,2.75
2022-09-22T14:36:47.903Z,3.00
2022-09-22T14:39:20.255Z,0.90
2022-09-22T14:41:55.214Z,1.75
2022-09-22T14:44:44.673Z,1.75
2022-09-22T14:47:27.490Z,2.35
2022-09-22T14:49:51.457Z,1.00
2022-09-22T14:52:27.091Z,0.90
2022-09-22T14:54:51.903Z,1.65
2022-09-22T14:57:17.962Z,0.70
2022-09-22T15:00:07.557Z,1.55
2022-09-22T15:02:34.012Z,1.65
2022-09-22T15:04:57.639Z,0.77
2022-09-22T15:07:26.010Z,0.60
2022-09-22T15:09:55.514Z,0.88
2022-09-22T15:12:40.403Z,2.70
2022-09-22T15:15:04.815Z,1.40
2022-09-22T15:17:58.756Z,0.85
2022-09-22T15:20:22.519Z,3.47
2022-09-22T15:22:46.372Z,3.28
2022-09-22T15:25:15.196Z,1.65
2022-09-22T15:27:42.947Z,2.30
2022-09-22T15:30:15.868Z,4.78
2022-09-22T15:32:44.687Z,3.00
2022-09-22T15:35:10.388Z,2.67
2022-09-22T15:37:39.008Z,7.57
2022-09-22T15:40:03.110Z,2.35
2022-09-22T15:42:28.080Z,1.77
2022-09-22T15:44:53.223Z,3.33
2022-09-22T15:47:17.248Z,2.25
2022-09-22T15:49:41.257Z,2.50
2022-09-22T15:52:04.995Z,2.75
2022-09-22T15:54:29.601Z,3.00
2022-09-22T15:56:55.558Z,2.83
2022-09-22T15:59:21.871Z,3.28
2022-09-22T16:01:46.815Z,2.78
2022-09-22T16:04:10.445Z,3.63
2022-09-22T16:06:34.258Z,2.72
2022-09-22T16:08:58.545Z,2.28
2022-09-22T16:11:28.355Z,3.85
2022-09-22T16:13:51.965Z,3.53
2022-09-22T16:16:18.284Z,4.13
2022-09-22T16:18:43.926Z,2.55
2022-09-22T16:21:10.315Z,3.88
2022-09-22T16:23:34.251Z,4.82
2022-09-22T16:25:57.814Z,2.55
2022-09-22T16:28:21.371Z,2.90
2022-09-22T16:30:44.914Z,5.88
2022-09-22T16:33:08.458Z,2.55
2022-09-22T16:35:33.367Z,5.50
2022-09-22T16:37:58.092Z,4.55
2022-09-22T16:40:22.494Z,3.72
2022-09-22T16:42:46.049Z,2.83
2022-09-22T16:45:10.582Z,3.60
2022-09-22T16:47:34.171Z,5.88
2022-09-22T16:49:57.972Z,12.75
2022-09-22T16:52:24.071Z,4.82
2022-09-22T16:54:47.783Z,7.22
2022-09-22T16:57:11.471Z,11.10
2022-09-22T16:59:35.035Z,8.48
2022-09-22T17:01:58.600Z,6.68
2022-09-22T17:04:22.357Z,10.20
2022-09-22T17:06:46.562Z,5.55
2022-09-22T17:09:13.017Z,6.20
2022-09-22T17:11:39.242Z,10.38
2022-09-22T17:14:08.869Z,6.15
2022-09-22T17:16:37.640Z,7.13
2022-09-22T17:19:03.813Z,6.32
2022-09-22T17:21:31.208Z,6.88
2022-09-22T17:24:00.563Z,5.55
2022-09-22T17:26:25.495Z,9.48
2022-09-22T17:28:53.259Z,23.25
2022-09-22T17:31:16.924Z,22.92
2022-09-22T17:33:46.982Z,7.97
2022-09-22T17:36:19.554Z,7.47
2022-09-22T17:38:43.071Z,6.70
2022-09-22T17:41:08.442Z,6.72
2022-09-22T17:43:33.495Z,6.40
2022-09-22T17:45:57.006Z,6.85
2022-09-22T17:48:37.890Z,6.13
2022-09-22T17:51:18.610Z,8.57
2022-09-22T17:53:59.356Z,9.48
2022-09-22T17:56:23.007Z,13.50
2022-09-22T17:58:47.890Z,13.90
2022-09-22T18:01:11.480Z,12.48
2022-09-22T18:03:35.064Z,15.77
2022-09-22T18:05:59.187Z,9.27
2022-09-22T18:08:22.759Z,9.10
2022-09-22T18:10:46.361Z,14.85
2022-09-22T18:13:10.222Z,25.27
2022-09-22T18:15:36.575Z,16.27
2022-09-22T18:18:00.195Z,18.35
2022-09-22T18:20:23.746Z,19.98
2022-09-22T18:22:49.221Z,30.85
2022-09-22T18:25:13.071Z,30.30
2022-09-22T18:27:37.314Z,30.90
2022-09-22T18:30:00.974Z,27.35
2022-09-22T18:32:27.195Z,29.73
2022-09-22T18:34:51.239Z,32.67
2022-09-22T18:37:15.834Z,32.10
2022-09-22T18:39:40.769Z,26.40
2022-09-22T18:42:04.979Z,29.00
2022-09-22T18:44:29.280Z,31.63
2022-09-22T18:46:53.995Z,32.60
2022-09-22T18:49:19.408Z,22.95
2022-09-22T18:51:49.229Z,24.70
2022-09-22T18:54:15.512Z,25.92
2022-09-22T18:56:41.183Z,19.48
2022-09-22T18:59:06.242Z,24.65
2022-09-22T19:01:34.407Z,27.95
2022-09-22T19:03:58.336Z,26.33
2022-09-22T19:06:23.286Z,24.52
2022-09-22T19:08:46.883Z,31.95
2022-09-22T19:11:11.145Z,37.53
2022-09-22T19:13:35.837Z,34.55
2022-09-22T19:15:59.647Z,38.35
2022-09-22T19:18:23.230Z,35.17
2022-09-22T19:20:46.749Z,32.08
2022-09-22T19:23:11.731Z,29.77
2022-09-22T19:25:35.450Z,30.17
2022-09-22T19:28:00.119Z,32.88
2022-09-22T19:30:27.488Z,30.38
2022-09-22T19:32:54.659Z,32.17
2022-09-22T19:35:18.459Z,30.33
2022-09-22T19:37:42.380Z,35.40
2022-09-22T19:40:09.202Z,31.17
2022-09-22T19:42:35.917Z,33.95
2022-09-22T19:45:03.024Z,32.42
2022-09-22T19:47:26.651Z,29.60
2022-09-22T19:49:50.225Z,28.02
2022-09-22T19:52:14.760Z,27.67
2022-09-22T19:54:38.390Z,24.70
2022-09-22T19:57:03.636Z,27.13
2022-09-22T19:59:27.434Z,25.67
2022-09-22T20:01:51.120Z,23.17
2022-09-22T20:04:18.543Z,23.30
2022-09-22T20:06:42.165Z,20.45
2022-09-22T20:09:05.886Z,19.33
2022-09-22T20:11:33.419Z,20.38
2022-09-22T20:14:27.366Z,21.00
2022-09-22T20:16:53.428Z,25.35
2022-09-22T20:19:17.514Z,20.60
2022-09-22T20:21:42.378Z,20.88
2022-09-22T20:24:07.098Z,21.88
2022-09-22T20:26:31.068Z,28.52
2022-09-22T20:28:56.478Z,21.33
2022-09-22T20:31:21.632Z,24.02
2022-09-22T20:33:45.328Z,21.42
2022-09-22T20:36:13.709Z,20.15
2022-09-22T20:38:38.482Z,19.95
2022-09-22T20:41:02.990Z,23.42
2022-09-22T20:43:28.928Z,18.77
2022-09-22T20:45:52.517Z,20.00
2022-09-22T20:48:18.898Z,20.60
2022-09-22T20:50:42.554Z,26.17
2022-09-22T20:53:06.157Z,20.58
2022-09-22T20:55:29.741Z,23.33
2022-09-22T20:57:53.410Z,23.88
2022-09-22T21:00:17.315Z,22.55
2022-09-22T21:02:41.110Z,24.23
2022-09-22T21:05:06.845Z,23.90
2022-09-22T21:07:32.381Z,25.30
2022-09-22T21:10:13.310Z,27.65
2022-09-22T21:12:37.083Z,24.38
2022-09-22T21:15:00.977Z,23.73
2022-09-22T21:17:25.379Z,25.17
2022-09-22T21:19:48.995Z,26.17
2022-09-22T21:22:14.030Z,25.98
2022-09-22T21:24:37.708Z,25.70
2022-09-22T21:27:01.333Z,31.60
2022-09-22T21:29:24.888Z,25.90
2022-09-22T21:31:49.780Z,28.40
2022-09-22T21:34:13.480Z,28.17
2022-09-22T21:36:37.083Z,31.85
2022-09-22T21:39:02.419Z,30.27
2022-09-22T21:41:28.635Z,27.42
2022-09-22T21:43:52.703Z,30.58
2022-09-22T21:46:18.888Z,30.98
2022-09-22T21:48:43.144Z,27.98
2022-09-22T21:51:09.811Z,33.78
2022-09-22T21:53:35.153Z,27.63
2022-09-22T21:56:03.260Z,27.63
2022-09-22T21:58:28.003Z,35.27
2022-09-22T22:00:53.024Z,26.00
2022-09-22T22:03:31.705Z,28.67
2022-09-22T22:06:02.814Z,27.92
2022-09-22T22:08:26.437Z,31.38
2022-09-22T22:10:50.113Z,27.07
2022-09-22T22:13:15.866Z,32.23
2022-09-22T22:15:40.537Z,30.88
2022-09-22T22:18:04.266Z,31.38
2022-09-22T22:20:27.938Z,43.88
2022-09-22T22:22:51.574Z,34.53
2022-09-22T22:25:17.372Z,35.78
2022-09-22T22:27:41.048Z,36.33
2022-09-22T22:30:07.267Z,40.55
2022-09-22T22:32:30.982Z,34.50
2022-09-22T22:34:54.588Z,36.07
2022-09-22T22:37:18.151Z,37.37
2022-09-22T22:39:41.710Z,39.80
2022-09-22T22:42:06.152Z,38.23
2022-09-22T22:44:29.864Z,38.17
2022-09-22T22:46:55.009Z,43.60
2022-09-22T22:49:18.551Z,40.87
2022-09-22T22:51:43.994Z,40.50
2022-09-22T22:54:08.290Z,37.75
2022-09-22T22:56:32.100Z,44.37
2022-09-22T22:58:55.899Z,36.60
2022-09-22T23:01:22.171Z,39.45
2022-09-22T23:03:49.951Z,37.40
2022-09-22T23:06:19.006Z,40.53
2022-09-22T23:08:43.774Z,39.00
2022-09-22T23:11:11.459Z,37.27
2022-09-22T23:13:35.421Z,40.73
2022-09-22T23:16:08.095Z,37.83
2022-09-22T23:18:35.305Z,35.23
2022-09-22T23:21:00.392Z,43.10
2022-09-22T23:23:24.050Z,36.53
2022-09-22T23:25:50.339Z,40.70
2022-09-22T23:28:14.015Z,42.70
2022-09-22T23:30:37.583Z,41.23
2022-09-22T23:33:01.301Z,39.30
2022-09-22T23:35:25.012Z,41.03
2022-09-22T23:37:50.915Z,40.43
2022-09-22T23:40:14.544Z,39.87
2022-09-22T23:42:38.198Z,38.87
2022-09-22T23:45:01.728Z,42.43
2022-09-22T23:47:25.366Z,42.30
2022-09-22T23:49:49.052Z,39.73
2022-09-22T23:52:12.726Z,50.67
2022-09-22T23:54:37.631Z,41.33
2022-09-22T23:57:01.530Z,39.97
2022-09-22T23:59:25.130Z,41.33
